Latest Weather Observations for Richmond

IDQ60801

Issued at 10:52 pm EST Wednesday 12 August 2020 (issued every 10 minutes, with the page automatically refreshed every 10 minutes)

About weather observations | Map of weather stations | Latest weather observations for QLD | Other Formats
Station Details ID: 030161 Name: RICHMOND AIRPORT Lat: -20.70 Lon: 143.12 Height: 206.3 m
Data from the previous 72 hours. | See also: Recent months at Richmond
Date/Time
EST
Temp
°C
App
Temp
°C
Dew
Point
°C
Rel
Hum
%
Delta-T
°C
Wind Press
QNH
hPa
Press
MSL
hPa
Rain since
9am
mm
Dir  Spd
km/h
Gust
km/h
Spd
kts
Gust
kts
12/10:30pm 19.9 16.6 -0.1 26 8.9 NE 7 11 4 6 1014.5 1013.9 0.0
12/10:00pm 19.8 15.7 -0.2 26 8.9 NNE 11 13 6 7 1014.5 1013.9 0.0
12/09:30pm 19.6 15.1 -0.4 26 8.8 NNE 13 13 7 7 1014.5 1013.9 0.0
12/09:00pm 19.7 15.7 0.7 28 8.6 N 11 13 6 7 1014.3 1013.8 0.0
12/08:30pm 21.2 18.9 0.4 25 9.5 NNE 2 7 1 4 1014.1 1013.6 0.0
12/08:00pm 23.0 19.0 0.8 23 10.3 N 11 13 6 7 1013.8 1013.2 0.0
12/07:30pm 23.5 19.4 -0.1 21 10.8 N 11 13 6 7 1013.3 1012.7 0.0
12/07:00pm 27.0 23.7 -0.1 17 12.8 NW 7 9 4 5 1013.0 1012.4 0.0
12/06:30pm 28.1 24.4 -0.1 16 13.4 NNW 9 11 5 6 1012.8 1012.2 0.0
12/06:00pm 29.0 24.4 -1.2 14 14.2 WNW 13 15 7 8 1012.7 1012.1 0.0
12/05:30pm 31.5 27.4 -0.2 13 15.4 WNW 11 15 6 8 1012.5 1011.9 0.0
12/05:00pm 32.1 26.3 0.2 13 15.7 W 20 32 11 17 1012.4 1011.8 0.0
12/04:30pm 32.6 27.3 -0.5 12 16.1 WNW 17 26 9 14 1012.4 1011.8 0.0
12/04:00pm 32.7 26.5 -0.4 12 16.1 WNW 22 35 12 19 1012.4 1011.8 0.0
12/03:30pm 32.9 27.3 -0.2 12 16.2 WNW 19 32 10 17 1012.4 1011.8 0.0
12/03:00pm 33.6 29.0 1.4 13 16.3 WNW 15 28 8 15 1012.8 1012.2 0.0
12/02:30pm 33.0 27.5 0.9 13 16.0 WNW 19 33 10 18 1013.1 1012.5 0.0
12/02:00pm 32.7 27.0 0.7 13 15.9 W 20 41 11 22 1013.5 1012.9 0.0
12/01:30pm 32.8 27.5 -0.3 12 16.2 NW 17 35 9 19 1014.1 1013.6 0.0
12/01:00pm 32.3 27.4 -0.7 12 16.0 NW 15 28 8 15 1014.7 1014.1 0.0
12/12:30pm 31.9 26.9 -1.0 12 15.8 WNW 15 24 8 13 1015.3 1014.7 0.0
12/12:00pm 30.9 25.3 -3.0 11 15.6 NW 17 32 9 17 1015.8 1015.2 0.0
12/11:30am 30.3 24.8 -2.2 12 15.1 NNW 17 24 9 13 1016.3 1015.7 0.0
12/11:00am 29.0 23.4 -3.2 12 14.5 N 17 22 9 12 1016.8 1016.2 0.0
12/10:30am 27.9 22.8 -2.0 14 13.7 N 15 22 8 12 1017.2 1016.6 0.0
12/10:00am 26.4 21.5 -3.2 14 13.1 NNE 13 19 7 10 1017.3 1016.7 0.0
12/09:30am 24.0 19.3 -1.8 18 11.5 NE 13 19 7 10 1017.2 1016.6 0.0
12/09:00am 21.0 15.4 -2.8 20 10.1 NNE 17 20 9 11 1017.2 1016.6 0.0
12/08:30am 17.4 12.6 -2.3 26 8.2 NNE 13 17 7 9 1017.0 1016.4 0.0
12/08:00am 13.2 9.1 -3.1 32 6.4 NE 9 11 5 6 1016.8 1016.2 0.0
12/07:30am 9.8 5.3 -3.5 39 5.0 NE 11 11 6 6 1016.6 1016.0 0.0
12/07:00am 8.5 3.9 -4.3 40 4.6 NE 11 13 6 7 1016.3 1015.7 0.0
12/06:30am 7.9 3.3 -4.2 42 4.3 NE 11 13 6 7 1016.0 1015.4 0.0
12/06:00am 8.7 4.1 -4.5 39 4.7 NE 11 13 6 7 1015.5 1014.9 0.0
12/05:30am 9.2 4.5 -5.4 35 5.2 ENE 11 13 6 7 1015.4 1014.8 0.0
12/05:00am 9.7 5.0 -5.0 35 5.3 ENE 11 13 6 7 1015.2 1014.6 0.0
12/04:30am 9.5 5.2 -4.8 36 5.2 ENE 9 11 5 6 1015.0 1014.4 0.0
12/04:00am 10.2 5.2 -4.6 35 5.4 NE 13 13 7 7 1014.8 1014.2 0.0
12/03:30am 10.2 5.5 -4.9 34 5.5 NE 11 13 6 7 1014.6 1014.0 0.0
12/03:00am 10.9 6.2 -4.7 33 5.7 NE 11 13 6 7 1014.7 1014.1 0.0
12/02:30am 11.8 6.8 -4.3 32 6.0 NE 13 15 7 8 1014.6 1014.0 0.0
12/02:00am 12.5 7.5 -4.1 31 6.3 W 13 15 7 8 1014.5 1013.9 0.0
12/01:30am 11.7 6.7 -4.0 33 5.9 W 13 13 7 7 1014.7 1014.1 0.0
12/01:00am 10.7 6.1 -4.5 34 5.6 W 11 13 6 7 1014.7 1014.1 0.0
12/12:30am 11.9 7.3 -3.8 33 6.0 W 11 11 6 6 1014.7 1014.1 0.0
12/12:00am 10.6 6.4 -4.2 35 5.5 W 9 9 5 5 1014.8 1014.2 0.0
 
Date/Time
EST
Temp
°C
App
Temp
°C
Dew
Point
°C
Rel
Hum
%
Delta-T
°C
Wind Press
QNH
hPa
Press
MSL
hPa
Rain since
9am
mm
Dir  Spd
km/h
Gust
km/h
Spd
kts
Gust
kts
11/11:30pm 13.7 11.3 -3.5 30 6.7 CALM 0 0 0 0 1014.8 1014.2 0.0
11/11:00pm 14.8 12.3 -4.0 27 7.3 CALM 0 0 0 0 1014.8 1014.2 0.0
11/10:30pm 17.4 13.8 -3.4 24 8.5 W 6 6 3 3 1014.6 1014.0 0.0
11/10:00pm 17.8 14.0 -3.6 23 8.7 W 7 7 4 4 1014.5 1013.9 0.0
11/09:30pm 18.7 14.5 -4.0 21 9.2 W 9 11 5 6 1014.3 1013.8 0.0
11/09:00pm 19.3 15.1 -4.2 20 9.6 W 9 11 5 6 1014.3 1013.8 0.0
11/08:30pm 19.6 15.3 -5.3 18 10.0 W 9 11 5 6 1014.3 1013.8 0.0
11/08:00pm 19.9 15.4 -6.6 16 10.3 W 9 11 5 6 1014.1 1013.6 0.0
11/07:30pm 19.9 14.7 -6.6 16 10.3 W 13 15 7 8 1013.8 1013.2 0.0
11/07:00pm 21.2 16.0 -6.4 15 11.0 W 13 13 7 7 1013.4 1012.8 0.0
11/06:30pm 22.9 17.3 -6.0 14 11.8 WNW 15 17 8 9 1013.0 1012.4 0.0
11/06:00pm 26.0 20.6 -4.5 13 13.2 WNW 15 19 8 10 1012.8 1012.2 0.0
11/05:30pm 28.3 22.2 -3.8 12 14.3 WNW 19 24 10 13 1012.5 1011.9 0.0
11/05:00pm 29.4 23.1 -4.1 11 15.0 WNW 20 24 11 13 1012.3 1011.7 0.0
11/04:30pm 29.6 23.5 -3.9 11 15.0 WNW 19 28 10 15 1012.1 1011.5 0.0
11/04:00pm 30.0 23.9 -3.6 11 15.2 WNW 19 30 10 16 1012.1 1011.5 0.0
11/03:30pm 29.8 23.5 -3.8 11 15.1 WNW 20 32 11 17 1012.3 1011.7 0.0
11/03:00pm 29.9 23.1 -1.5 13 14.7 NW 24 35 13 19 1012.4 1011.8 0.0
11/02:30pm 29.9 24.6 -0.5 14 14.5 NW 17 26 9 14 1012.9 1012.3 0.0
11/02:00pm 28.9 23.4 -2.3 13 14.3 NW 17 30 9 16 1013.4 1012.8 0.0
11/01:30pm 28.9 23.1 -1.2 14 14.1 WNW 19 26 10 14 1013.8 1013.2 0.0
11/01:00pm 28.1 22.4 -0.9 15 13.6 NW 19 28 10 15 1014.3 1013.8 0.0
11/12:30pm 27.8 22.8 -1.2 15 13.5 NW 15 22 8 12 1015.0 1014.4 0.0
11/12:00pm 26.4 22.2 -0.6 17 12.5 NNW 11 19 6 10 1015.6 1015.0 0.0
11/11:30am 25.4 21.3 0.1 19 11.8 NNE 11 17 6 9 1016.2 1015.6 0.0
11/11:00am 24.2 20.6 0.5 21 11.0 NE 9 15 5 8 1016.6 1016.0 0.0
11/10:30am 22.8 18.8 0.6 23 10.3 ENE 11 17 6 9 1016.8 1016.2 0.0
11/10:00am 21.0 16.3 0.8 26 9.2 ENE 15 20 8 11 1017.0 1016.4 0.0
11/09:30am 18.6 13.1 0.7 30 8.0 E 19 24 10 13 1017.1 1016.5 0.0
11/09:00am 16.8 11.7 0.5 33 7.1 E 17 22 9 12 1017.2 1016.6 0.0
11/08:30am 13.8 9.4 0.5 40 5.7 ESE 13 17 7 9 1017.2 1016.6 0.0
11/08:00am 10.7 6.6 -0.4 46 4.5 ESE 11 13 6 7 1016.8 1016.2 0.0
11/07:30am 6.3 2.3 -2.3 54 3.2 SE 9 13 5 7 1016.6 1016.0 0.0
11/07:00am 5.4 0.7 -2.0 59 2.7 SE 13 13 7 7 1016.5 1015.9 0.0
11/06:30am 5.5 1.8 -2.6 56 2.9 SE 7 11 4 6 1016.4 1015.8 0.0
11/06:00am 6.6 2.2 -2.3 53 3.3 E 11 13 6 7 1016.0 1015.4 0.0
11/05:30am 7.6 3.3 -1.6 52 3.5 ESE 11 13 6 7 1015.9 1015.3 0.0
11/05:00am 7.9 3.2 -1.6 51 3.6 E 13 15 7 8 1015.9 1015.3 0.0
11/04:30am 8.1 3.1 -1.4 51 3.7 ESE 15 17 8 9 1015.9 1015.3 0.0
11/04:00am 8.1 4.1 -2.0 49 3.8 ESE 9 11 5 6 1016.2 1015.6 0.0
11/03:30am 9.7 5.1 -1.3 46 4.3 E 13 15 7 8 1016.2 1015.6 0.0
11/03:00am 10.1 4.7 -1.3 45 4.5 ESE 17 19 9 10 1016.2 1015.6 0.0
11/02:30am 10.4 5.0 -1.3 44 4.6 ESE 17 19 9 10 1016.5 1015.9 0.0
11/02:00am 10.2 5.2 -0.9 46 4.4 ESE 15 17 8 9 1016.6 1016.0 0.0
11/01:30am 9.7 5.5 -1.1 47 4.3 SE 11 15 6 8 1016.9 1016.3 0.0
11/01:00am 9.8 5.2 -1.3 46 4.4 ESE 13 15 7 8 1016.9 1016.3 0.0
11/12:30am 9.2 4.5 -1.5 47 4.2 SE 13 13 7 7 1017.1 1016.5 0.0
11/12:00am 9.6 6.0 -2.0 44 4.5 ESE 7 11 4 6 1016.9 1016.3 0.0
 
Date/Time
EST
Temp
°C
App
Temp
°C
Dew
Point
°C
Rel
Hum
%
Delta-T
°C
Wind Press
QNH
hPa
Press
MSL
hPa
Rain since
9am
mm
Dir  Spd
km/h
Gust
km/h
Spd
kts
Gust
kts
10/11:30pm 10.5 6.2 -1.5 43 4.7 SE 11 13 6 7 1016.9 1016.3 0.0
10/11:00pm 9.9 5.1 -2.4 42 4.7 SSE 13 15 7 8 1017.0 1016.4 0.0
10/10:30pm 10.1 5.3 -2.9 40 4.9 SSE 13 17 7 9 1016.9 1016.3 0.0
10/10:00pm 10.7 5.0 -3.4 37 5.3 SSE 17 19 9 10 1016.8 1016.2 0.0
10/09:30pm 11.7 6.8 -3.2 35 5.7 SSE 13 15 7 8 1016.9 1016.3 0.0
10/09:00pm 12.7 7.9 -2.7 34 6.0 SSE 13 17 7 9 1016.9 1016.3 0.0
10/08:30pm 14.3 8.7 -2.6 31 6.8 SSE 17 19 9 10 1016.8 1016.2 0.0
10/08:00pm 14.6 9.0 -2.8 30 7.0 SSE 17 17 9 9 1016.6 1016.0 0.0
10/07:30pm 15.5 9.8 -3.4 27 7.5 SSE 17 19 9 10 1016.3 1015.7 0.0
10/07:00pm 17.4 12.3 -2.3 26 8.2 SE 15 17 8 9 1015.9 1015.3 0.0
10/06:30pm 18.0 13.5 -3.4 23 8.8 SE 11 17 6 9 1015.6 1015.0 0.0
10/06:00pm 21.0 16.2 -2.8 20 10.1 SE 13 17 7 9 1015.6 1015.0 0.0
10/05:30pm 22.6 16.6 -2.9 18 11.0 SSE 19 24 10 13 1015.5 1014.9 0.0
10/05:00pm 23.4 17.8 -3.0 17 11.4 SSE 17 20 9 11 1015.3 1014.7 0.0
10/04:30pm 23.6 18.4 -2.8 17 11.5 SE 15 22 8 12 1015.2 1014.6 0.0
10/04:00pm 24.0 19.2 -2.5 17 11.6 SSE 13 22 7 12 1015.2 1014.6 0.0
10/03:30pm 23.8 18.2 -2.7 17 11.6 SSE 17 24 9 13 1015.3 1014.7 0.0
10/03:00pm 24.0 18.9 -1.8 18 11.5 ESE 15 24 8 13 1015.5 1014.9 0.0
10/02:30pm 23.9 18.3 -2.6 17 11.6 SE 17 30 9 16 1015.9 1015.3 0.0
10/02:00pm 23.3 17.3 -3.1 17 11.4 SSE 19 28 10 15 1016.4 1015.8 0.0
10/01:30pm 22.4 16.6 -1.6 20 10.6 SE 19 30 10 16 1017.0 1016.4 0.0
10/01:00pm 23.0 17.8 0.2 22 10.5 SSE 17 26 9 14 1017.5 1016.9 0.0
10/12:30pm 22.0 16.8 -0.1 23 10.0 SE 17 32 9 17 1018.2 1017.6 0.0
10/12:00pm 20.9 15.2 -0.4 24 9.5 SE 19 28 10 15 1018.7 1018.2 0.0
10/11:30am 20.5 14.8 0.4 26 9.1 SE 20 30 11 16 1019.1 1018.6 0.0
10/11:00am 19.6 14.4 0.1 27 8.7 ESE 17 26 9 14 1019.8 1019.2 0.0
10/10:30am 18.8 12.7 0.4 29 8.2 ESE 22 28 12 15 1020.1 1019.5 0.0
10/10:00am 18.3 12.7 0.9 31 7.8 ESE 20 26 11 14 1020.1 1019.5 0.0
10/09:30am 16.4 9.9 0.1 33 7.1 ESE 24 32 13 17 1020.0 1019.4 0.0
10/09:00am 15.3 9.5 -0.1 35 6.6 E 20 26 11 14 1019.9 1019.3 0.0
10/08:30am 12.0 8.1 -1.2 40 5.3 E 9 17 5 9 1019.8 1019.2 0.0
10/08:00am 9.6 6.3 -1.4 46 4.3 E 6 9 3 5 1019.8 1019.2 0.0
10/07:30am 7.2 3.9 -1.5 54 3.3 E 6 7 3 4 1019.6 1019.0 0.0
10/07:00am 5.7 2.1 -2.1 57 2.9 E 7 9 4 5 1019.2 1018.7 0.0
10/06:30am 6.0 2.1 -1.6 58 2.8 E 9 11 5 6 1019.0 1018.5 0.0
10/06:00am 6.2 2.2 -1.9 56 3.0 E 9 11 5 6 1018.8 1018.3 0.0
10/05:30am 7.2 3.2 -2.0 52 3.5 E 9 11 5 6 1018.5 1018.0 0.0
10/05:00am 7.3 3.4 -1.6 53 3.4 ENE 9 11 5 6 1018.3 1017.8 0.0
10/04:30am 7.9 2.8 -2.1 49 3.8 ESE 15 17 8 9 1018.2 1017.6 0.0
10/04:00am 9.2 4.5 -1.8 46 4.2 E 13 15 7 8 1018.1 1017.5 0.0
10/03:30am 9.8 5.4 -2.2 43 4.6 E 11 17 6 9 1018.0 1017.4 0.0
10/03:00am 10.6 5.5 -1.8 42 4.9 SE 15 20 8 11 1018.0 1017.4 0.0
10/02:30am 10.0 4.9 -2.0 43 4.7 SE 15 17 8 9 1018.0 1017.4 0.0
10/02:00am 9.8 5.0 -2.5 42 4.7 SE 13 15 7 8 1018.2 1017.6 0.0
10/01:30am 9.7 4.4 -3.2 40 4.8 SSE 15 17 8 9 1018.2 1017.6 0.0
10/01:00am 9.8 4.2 -3.1 40 4.9 SSE 17 19 9 10 1018.3 1017.8 0.0
10/12:30am 9.5 3.8 -3.4 40 4.8 SSE 17 17 9 9 1018.4 1017.9 0.0
10/12:00am 10.4 4.7 -3.6 37 5.2 SSE 17 19 9 10 1018.5 1018.0 0.0
 
Date/Time
EST
Temp
°C
App
Temp
°C
Dew
Point
°C
Rel
Hum
%
Delta-T
°C
Wind Press
QNH
hPa
Press
MSL
hPa
Rain since
9am
mm
Dir  Spd
km/h
Gust
km/h
Spd
kts
Gust
kts
09/11:30pm 10.4 5.4 -4.0 36 5.4 SSE 13 15 7 8 1018.6 1018.1 0.0
09/11:00pm 10.8 5.4 -4.4 34 5.6 SSE 15 19 8 10 1018.6 1018.1 0.0

Other formats

Comma delimited format used in spreadsheet applications
http://www.bom.gov.au/fwo/IDQ60801/IDQ60801.94341.axf

JavaScript Object Notation format (JSON) in row-major order
http://www.bom.gov.au/fwo/IDQ60801/IDQ60801.94341.json

Data quality

Most of these data are generated automatically and are frequently updated. Quality checks on data are not normally performed. It is possible for incorrect values to appear. Refer to information at About Latest Weather Observations and please check the disclaimer before using these data.